sensor_id;sensor_type;location;lat;lon;timestamp;pressure;altitude;pressure_sealevel;temperature;humidity
47530;BME280;33272;51.922;7.730;2022-11-20T00:01:30;100496.41;;;-4.95;100.00
47530;BME280;33272;51.922;7.730;2022-11-20T00:03:57;100494.41;;;-4.97;100.00
47530;BME280;33272;51.922;7.730;2022-11-20T00:06:26;100496.69;;;-4.99;100.00
47530;BME280;33272;51.922;7.730;2022-11-20T00:08:57;100498.28;;;-4.99;100.00
47530;BME280;33272;51.922;7.730;2022-11-20T00:11:27;100488.13;;;-5.01;100.00
47530;BME280;33272;51.922;7.730;2022-11-20T00:13:57;100493.28;;;-4.99;100.00
47530;BME280;33272;51.922;7.730;2022-11-20T00:16:27;100496.50;;;-5.00;100.00
47530;BME280;33272;51.922;7.730;2022-11-20T00:18:54;100502.38;;;-5.00;100.00
47530;BME280;33272;51.922;7.730;2022-11-20T00:21:23;100491.50;;;-5.00;100.00
47530;BME280;33272;51.922;7.730;2022-11-20T00:23:53;100483.13;;;-5.01;100.00
47530;BME280;33272;51.922;7.730;2022-11-20T00:26:24;100492.19;;;-5.01;100.00
47530;BME280;33272;51.922;7.730;2022-11-20T00:28:53;100493.22;;;-5.06;100.00
47530;BME280;33272;51.922;7.730;2022-11-20T00:31:21;100491.69;;;-5.12;100.00
47530;BME280;33272;51.922;7.730;2022-11-20T00:33:48;100492.19;;;-5.14;100.00
47530;BME280;33272;51.922;7.730;2022-11-20T00:36:17;100493.13;;;-5.14;100.00
47530;BME280;33272;51.922;7.730;2022-11-20T00:38:45;100490.63;;;-5.14;100.00
47530;BME280;33272;51.922;7.730;2022-11-20T00:41:15;100499.28;;;-5.17;100.00
47530;BME280;33272;51.922;7.730;2022-11-20T00:43:43;100497.78;;;-5.22;100.00
47530;BME280;33272;51.922;7.730;2022-11-20T00:46:14;100497.56;;;-5.24;100.00
47530;BME280;33272;51.922;7.730;2022-11-20T00:48:41;100495.59;;;-5.26;100.00
47530;BME280;33272;51.922;7.730;2022-11-20T00:51:09;100498.59;;;-5.29;100.00
47530;BME280;33272;51.922;7.730;2022-11-20T00:53:37;100498.38;;;-5.30;100.00
47530;BME280;33272;51.922;7.730;2022-11-20T00:56:07;100510.16;;;-5.29;100.00
47530;BME280;33272;51.922;7.730;2022-11-20T00:58:37;100508.34;;;-5.18;100.00
47530;BME280;33272;51.922;7.730;2022-11-20T01:01:09;100508.28;;;-5.12;100.00
47530;BME280;33272;51.922;7.730;2022-11-20T01:03:39;100504.00;;;-5.13;100.00
47530;BME280;33272;51.922;7.730;2022-11-20T01:06:11;100504.47;;;-5.16;100.00
47530;BME280;33272;51.922;7.730;2022-11-20T01:08:39;100500.88;;;-5.18;100.00
47530;BME280;33272;51.922;7.730;2022-11-20T01:11:09;100504.56;;;-5.21;100.00
47530;BME280;33272;51.922;7.730;2022-11-20T01:13:37;100506.16;;;-5.22;100.00
47530;BME280;33272;51.922;7.730;2022-11-20T01:16:08;100501.66;;;-5.24;100.00
47530;BME280;33272;51.922;7.730;2022-11-20T01:18:38;100502.56;;;-5.24;100.00
47530;BME280;33272;51.922;7.730;2022-11-20T01:21:08;100497.16;;;-5.27;100.00
47530;BME280;33272;51.922;7.730;2022-11-20T01:23:38;100499.88;;;-5.25;100.00
47530;BME280;33272;51.922;7.730;2022-11-20T01:26:08;100494.50;;;-5.28;100.00
47530;BME280;33272;51.922;7.730;2022-11-20T01:28:35;100498.78;;;-5.27;100.00
47530;BME280;33272;51.922;7.730;2022-11-20T01:31:13;100497.88;;;-5.28;100.00
47530;BME280;33272;51.922;7.730;2022-11-20T01:33:41;100500.69;;;-5.32;100.00
47530;BME280;33272;51.922;7.730;2022-11-20T01:36:09;100490.47;;;-5.33;100.00
47530;BME280;33272;51.922;7.730;2022-11-20T01:38:36;100477.84;;;-5.35;100.00
47530;BME280;33272;51.922;7.730;2022-11-20T01:41:05;100483.91;;;-5.33;100.00
47530;BME280;33272;51.922;7.730;2022-11-20T01:43:32;100476.00;;;-5.36;100.00
47530;BME280;33272;51.922;7.730;2022-11-20T01:46:14;100476.53;;;-5.39;100.00
47530;BME280;33272;51.922;7.730;2022-11-20T01:48:49;100470.25;;;-5.42;100.00
47530;BME280;33272;51.922;7.730;2022-11-20T01:51:27;100465.06;;;-5.44;100.00
47530;BME280;33272;51.922;7.730;2022-11-20T01:54:00;100461.25;;;-5.47;100.00
47530;BME280;33272;51.922;7.730;2022-11-20T01:56:29;100462.47;;;-5.51;100.00
47530;BME280;33272;51.922;7.730;2022-11-20T01:59:00;100459.34;;;-5.55;100.00
47530;BME280;33272;51.922;7.730;2022-11-20T02:01:30;100460.53;;;-5.59;100.00
47530;BME280;33272;51.922;7.730;2022-11-20T02:03:58;100453.75;;;-5.60;100.00
47530;BME280;33272;51.922;7.730;2022-11-20T02:06:29;100450.97;;;-5.56;100.00
47530;BME280;33272;51.922;7.730;2022-11-20T02:08:57;100450.97;;;-5.56;100.00
47530;BME280;33272;51.922;7.730;2022-11-20T02:11:24;100444.88;;;-5.58;100.00
47530;BME280;33272;51.922;7.730;2022-11-20T02:13:54;100448.97;;;-5.59;100.00
47530;BME280;33272;51.922;7.730;2022-11-20T02:16:25;100445.19;;;-5.62;100.00
47530;BME280;33272;51.922;7.730;2022-11-20T02:18:55;100440.50;;;-5.66;100.00
47530;BME280;33272;51.922;7.730;2022-11-20T02:21:35;100439.88;;;-5.71;100.00
47530;BME280;33272;51.922;7.730;2022-11-20T02:24:08;100433.59;;;-5.74;100.00
47530;BME280;33272;51.922;7.730;2022-11-20T02:26:47;100436.56;;;-5.77;100.00
47530;BME280;33272;51.922;7.730;2022-11-20T02:29:23;100434.59;;;-5.79;100.00
47530;BME280;33272;51.922;7.730;2022-11-20T02:31:51;100426.00;;;-5.82;100.00
47530;BME280;33272;51.922;7.730;2022-11-20T02:34:21;100429.63;;;-5.79;100.00
47530;BME280;33272;51.922;7.730;2022-11-20T02:36:49;100428.19;;;-5.77;100.00
47530;BME280;33272;51.922;7.730;2022-11-20T02:39:19;100429.09;;;-5.77;100.00
47530;BME280;33272;51.922;7.730;2022-11-20T02:41:47;100431.59;;;-5.77;100.00
47530;BME280;33272;51.922;7.730;2022-11-20T02:44:14;100430.22;;;-5.75;100.00
47530;BME280;33272;51.922;7.730;2022-11-20T02:46:41;100426.81;;;-5.75;100.00
47530;BME280;33272;51.922;7.730;2022-11-20T02:49:08;100421.44;;;-5.78;100.00
47530;BME280;33272;51.922;7.730;2022-11-20T02:51:35;100421.25;;;-5.80;100.00
47530;BME280;33272;51.922;7.730;2022-11-20T02:54:02;100418.13;;;-5.85;100.00
47530;BME280;33272;51.922;7.730;2022-11-20T02:56:31;100421.81;;;-5.88;100.00
47530;BME280;33272;51.922;7.730;2022-11-20T02:58:58;100421.94;;;-5.94;100.00
47530;BME280;33272;51.922;7.730;2022-11-20T03:01:25;100429.69;;;-5.98;100.00
47530;BME280;33272;51.922;7.730;2022-11-20T03:03:52;100435.16;;;-6.00;100.00
47530;BME280;33272;51.922;7.730;2022-11-20T03:06:20;100430.66;;;-6.03;100.00
47530;BME280;33272;51.922;7.730;2022-11-20T03:08:47;100421.41;;;-6.04;100.00
47530;BME280;33272;51.922;7.730;2022-11-20T03:11:14;100424.81;;;-6.03;100.00
47530;BME280;33272;51.922;7.730;2022-11-20T03:13:43;100415.53;;;-6.04;100.00
47530;BME280;33272;51.922;7.730;2022-11-20T03:16:13;100411.94;;;-6.07;100.00
47530;BME280;33272;51.922;7.730;2022-11-20T03:18:41;100413.72;;;-6.06;100.00
47530;BME280;33272;51.922;7.730;2022-11-20T03:21:09;100416.22;;;-6.06;100.00
47530;BME280;33272;51.922;7.730;2022-11-20T03:23:36;100415.13;;;-6.08;100.00
47530;BME280;33272;51.922;7.730;2022-11-20T03:26:13;100420.78;;;-6.09;100.00
47530;BME280;33272;51.922;7.730;2022-11-20T03:28:42;100416.72;;;-6.08;100.00
47530;BME280;33272;51.922;7.730;2022-11-20T03:31:14;100404.28;;;-6.08;100.00
47530;BME280;33272;51.922;7.730;2022-11-20T03:33:43;100403.56;;;-6.07;100.00
47530;BME280;33272;51.922;7.730;2022-11-20T03:36:12;100409.44;;;-6.07;100.00
47530;BME280;33272;51.922;7.730;2022-11-20T03:38:41;100405.16;;;-6.08;100.00
47530;BME280;33272;51.922;7.730;2022-11-20T03:41:10;100399.78;;;-6.11;100.00
47530;BME280;33272;51.922;7.730;2022-11-20T03:43:38;100397.78;;;-6.13;100.00
47530;BME280;33272;51.922;7.730;2022-11-20T03:46:07;100396.00;;;-6.14;100.00
47530;BME280;33272;51.922;7.730;2022-11-20T03:48:35;100395.78;;;-6.16;100.00
47530;BME280;33272;51.922;7.730;2022-11-20T03:51:10;100396.78;;;-6.21;100.00
47530;BME280;33272;51.922;7.730;2022-11-20T03:53:37;100399.53;;;-6.25;100.00
47530;BME280;33272;51.922;7.730;2022-11-20T03:56:05;100393.25;;;-6.28;100.00
47530;BME280;33272;51.922;7.730;2022-11-20T03:58:33;100391.25;;;-6.31;100.00
47530;BME280;33272;51.922;7.730;2022-11-20T04:01:07;100394.44;;;-6.32;100.00
47530;BME280;33272;51.922;7.730;2022-11-20T04:03:34;100389.03;;;-6.35;100.00
47530;BME280;33272;51.922;7.730;2022-11-20T04:06:04;100387.25;;;-6.36;100.00
47530;BME280;33272;51.922;7.730;2022-11-20T04:08:31;100383.88;;;-6.37;100.00
47530;BME280;33272;51.922;7.730;2022-11-20T04:11:09;100379.56;;;-6.38;100.00
47530;BME280;33272;51.922;7.730;2022-11-20T04:13:37;100386.16;;;-6.38;100.00
47530;BME280;33272;51.922;7.730;2022-11-20T04:16:05;100385.97;;;-6.40;100.00
47530;BME280;33272;51.922;7.730;2022-11-20T04:18:34;100387.03;;;-6.38;100.00
47530;BME280;33272;51.922;7.730;2022-11-20T04:21:01;100380.28;;;-6.39;100.00
47530;BME280;33272;51.922;7.730;2022-11-20T04:23:29;100379.16;;;-6.41;100.00
47530;BME280;33272;51.922;7.730;2022-11-20T04:26:01;100381.25;;;-6.44;100.00
47530;BME280;33272;51.922;7.730;2022-11-20T04:28:28;100379.44;;;-6.45;100.00
47530;BME280;33272;51.922;7.730;2022-11-20T04:31:03;100378.75;;;-6.44;100.00
47530;BME280;33272;51.922;7.730;2022-11-20T04:33:30;100387.09;;;-6.43;100.00
47530;BME280;33272;51.922;7.730;2022-11-20T04:36:02;100394.16;;;-6.46;100.00
47530;BME280;33272;51.922;7.730;2022-11-20T04:38:29;100389.47;;;-6.50;100.00
47530;BME280;33272;51.922;7.730;2022-11-20T04:40:58;100386.81;;;-6.52;100.00
47530;BME280;33272;51.922;7.730;2022-11-20T04:43:25;100391.97;;;-6.50;100.00
47530;BME280;33272;51.922;7.730;2022-11-20T04:45:53;100385.81;;;-6.47;100.00
47530;BME280;33272;51.922;7.730;2022-11-20T04:48:20;100387.53;;;-6.40;100.00
47530;BME280;33272;51.922;7.730;2022-11-20T04:50:47;100378.53;;;-6.27;100.00
47530;BME280;33272;51.922;7.730;2022-11-20T04:53:15;100378.03;;;-6.12;100.00
47530;BME280;33272;51.922;7.730;2022-11-20T04:55:42;100385.94;;;-5.96;100.00
47530;BME280;33272;51.922;7.730;2022-11-20T04:58:09;100393.44;;;-5.83;100.00
47530;BME280;33272;51.922;7.730;2022-11-20T05:00:36;100391.13;;;-5.69;100.00
47530;BME280;33272;51.922;7.730;2022-11-20T05:03:05;100388.16;;;-5.53;100.00
47530;BME280;33272;51.922;7.730;2022-11-20T05:05:33;100393.53;;;-5.38;100.00
47530;BME280;33272;51.922;7.730;2022-11-20T05:08:01;100389.44;;;-5.24;100.00
47530;BME280;33272;51.922;7.730;2022-11-20T05:10:29;100389.13;;;-5.07;100.00
47530;BME280;33272;51.922;7.730;2022-11-20T05:12:57;100389.28;;;-4.93;100.00
47530;BME280;33272;51.922;7.730;2022-11-20T05:15:24;100383.53;;;-4.79;100.00
47530;BME280;33272;51.922;7.730;2022-11-20T05:17:52;100382.59;;;-4.67;100.00
47530;BME280;33272;51.922;7.730;2022-11-20T05:20:20;100384.88;;;-4.56;100.00
47530;BME280;33272;51.922;7.730;2022-11-20T05:22:47;100387.81;;;-4.46;100.00
47530;BME280;33272;51.922;7.730;2022-11-20T05:25:14;100389.00;;;-4.36;100.00
47530;BME280;33272;51.922;7.730;2022-11-20T05:27:42;100384.25;;;-4.28;100.00
47530;BME280;33272;51.922;7.730;2022-11-20T05:30:11;100383.59;;;-4.20;100.00
47530;BME280;33272;51.922;7.730;2022-11-20T05:32:38;100387.06;;;-4.12;100.00
47530;BME280;33272;51.922;7.730;2022-11-20T05:35:06;100389.13;;;-4.02;100.00
47530;BME280;33272;51.922;7.730;2022-11-20T05:37:33;100380.06;;;-3.94;100.00
47530;BME280;33272;51.922;7.730;2022-11-20T05:40:00;100382.63;;;-3.87;100.00
47530;BME280;33272;51.922;7.730;2022-11-20T05:42:30;100379.97;;;-3.82;100.00
47530;BME280;33272;51.922;7.730;2022-11-20T05:45:01;100378.59;;;-3.73;100.00
47530;BME280;33272;51.922;7.730;2022-11-20T05:47:32;100375.63;;;-3.63;100.00
47530;BME280;33272;51.922;7.730;2022-11-20T05:49:59;100368.88;;;-3.57;100.00
47530;BME280;33272;51.922;7.730;2022-11-20T05:52:28;100373.03;;;-3.50;100.00
47530;BME280;33272;51.922;7.730;2022-11-20T05:54:56;100372.19;;;-3.43;100.00
47530;BME280;33272;51.922;7.730;2022-11-20T05:57:23;100364.53;;;-3.38;100.00
47530;BME280;33272;51.922;7.730;2022-11-20T05:59:50;100364.59;;;-3.31;100.00
47530;BME280;33272;51.922;7.730;2022-11-20T06:02:18;100374.59;;;-3.23;100.00
47530;BME280;33272;51.922;7.730;2022-11-20T06:04:45;100369.47;;;-3.18;100.00
47530;BME280;33272;51.922;7.730;2022-11-20T06:07:12;100372.88;;;-3.10;100.00
47530;BME280;33272;51.922;7.730;2022-11-20T06:09:40;100367.88;;;-3.03;100.00
47530;BME280;33272;51.922;7.730;2022-11-20T06:12:07;100367.94;;;-2.96;100.00
47530;BME280;33272;51.922;7.730;2022-11-20T06:14:34;100367.94;;;-2.89;100.00
47530;BME280;33272;51.922;7.730;2022-11-20T06:17:01;100366.00;;;-2.84;100.00
47530;BME280;33272;51.922;7.730;2022-11-20T06:19:29;100366.72;;;-2.78;100.00
47530;BME280;33272;51.922;7.730;2022-11-20T06:21:56;100365.69;;;-2.73;100.00
47530;BME280;33272;51.922;7.730;2022-11-20T06:24:23;100367.28;;;-2.66;100.00
47530;BME280;33272;51.922;7.730;2022-11-20T06:26:51;100362.50;;;-2.58;100.00
47530;BME280;33272;51.922;7.730;2022-11-20T06:29:18;100365.88;;;-2.50;100.00
47530;BME280;33272;51.922;7.730;2022-11-20T06:31:45;100367.34;;;-2.45;100.00
47530;BME280;33272;51.922;7.730;2022-11-20T06:34:12;100369.69;;;-2.39;100.00
47530;BME280;33272;51.922;7.730;2022-11-20T06:36:40;100380.44;;;-2.33;100.00
47530;BME280;33272;51.922;7.730;2022-11-20T06:39:07;100373.63;;;-2.27;100.00
47530;BME280;33272;51.922;7.730;2022-11-20T06:41:34;100367.19;;;-2.25;100.00
47530;BME280;33272;51.922;7.730;2022-11-20T06:44:03;100374.31;;;-2.21;100.00
47530;BME280;33272;51.922;7.730;2022-11-20T06:46:31;100378.47;;;-2.14;100.00
47530;BME280;33272;51.922;7.730;2022-11-20T06:48:58;100382.94;;;-2.12;100.00
47530;BME280;33272;51.922;7.730;2022-11-20T06:51:25;100386.00;;;-2.07;100.00
47530;BME280;33272;51.922;7.730;2022-11-20T06:53:53;100380.63;;;-2.03;100.00
47530;BME280;33272;51.922;7.730;2022-11-20T06:56:20;100383.69;;;-1.98;100.00
47530;BME280;33272;51.922;7.730;2022-11-20T06:58:47;100375.78;;;-1.94;100.00
47530;BME280;33272;51.922;7.730;2022-11-20T07:01:15;100383.66;;;-1.91;100.00
47530;BME280;33272;51.922;7.730;2022-11-20T07:03:43;100383.66;;;-1.91;100.00
47530;BME280;33272;51.922;7.730;2022-11-20T07:06:10;100394.78;;;-1.89;100.00
47530;BME280;33272;51.922;7.730;2022-11-20T07:08:37;100396.19;;;-1.84;100.00
47530;BME280;33272;51.922;7.730;2022-11-20T07:11:06;100390.13;;;-1.79;100.00
47530;BME280;33272;51.922;7.730;2022-11-20T07:13:34;100387.22;;;-1.75;100.00
47530;BME280;33272;51.922;7.730;2022-11-20T07:16:03;100383.47;;;-1.71;100.00
47530;BME280;33272;51.922;7.730;2022-11-20T07:18:31;100380.94;;;-1.64;100.00
47530;BME280;33272;51.922;7.730;2022-11-20T07:21:00;100379.31;;;-1.56;100.00
47530;BME280;33272;51.922;7.730;2022-11-20T07:23:27;100380.91;;;-1.50;100.00
47530;BME280;33272;51.922;7.730;2022-11-20T07:25:54;100386.66;;;-1.44;100.00
47530;BME280;33272;51.922;7.730;2022-11-20T07:28:23;100388.97;;;-1.38;100.00
47530;BME280;33272;51.922;7.730;2022-11-20T07:30:50;100393.06;;;-1.31;100.00
47530;BME280;33272;51.922;7.730;2022-11-20T07:33:18;100389.44;;;-1.26;100.00
47530;BME280;33272;51.922;7.730;2022-11-20T07:35:46;100396.78;;;-1.21;100.00
47530;BME280;33272;51.922;7.730;2022-11-20T07:38:13;100395.19;;;-1.13;100.00
47530;BME280;33272;51.922;7.730;2022-11-20T07:40:40;100397.81;;;-1.04;100.00
47530;BME280;33272;51.922;7.730;2022-11-20T07:43:07;100398.69;;;-0.97;100.00
47530;BME280;33272;51.922;7.730;2022-11-20T07:45:35;100387.53;;;-0.91;100.00
47530;BME280;33272;51.922;7.730;2022-11-20T07:48:03;100383.03;;;-0.87;100.00
47530;BME280;33272;51.922;7.730;2022-11-20T07:50:30;100380.34;;;-0.81;100.00
47530;BME280;33272;51.922;7.730;2022-11-20T07:53:02;100378.31;;;-0.77;100.00
47530;BME280;33272;51.922;7.730;2022-11-20T07:55:30;100392.13;;;-0.73;100.00
47530;BME280;33272;51.922;7.730;2022-11-20T07:57:58;100377.56;;;-0.68;100.00
47530;BME280;33272;51.922;7.730;2022-11-20T08:00:26;100374.66;;;-0.64;100.00
47530;BME280;33272;51.922;7.730;2022-11-20T08:02:54;100373.94;;;-0.63;100.00
47530;BME280;33272;51.922;7.730;2022-11-20T08:05:21;100377.72;;;-0.60;100.00
47530;BME280;33272;51.922;7.730;2022-11-20T08:07:49;100378.25;;;-0.62;100.00
47530;BME280;33272;51.922;7.730;2022-11-20T08:10:16;100382.97;;;-0.73;100.00
47530;BME280;33272;51.922;7.730;2022-11-20T08:12:48;100376.69;;;-0.76;100.00
47530;BME280;33272;51.922;7.730;2022-11-20T08:15:33;100377.63;;;-0.76;100.00
47530;BME280;33272;51.922;7.730;2022-11-20T08:18:05;100379.78;;;-0.79;100.00
47530;BME280;33272;51.922;7.730;2022-11-20T08:20:33;100378.31;;;-0.77;100.00
47530;BME280;33272;51.922;7.730;2022-11-20T08:23:01;100379.41;;;-0.75;100.00
47530;BME280;33272;51.922;7.730;2022-11-20T08:25:29;100385.81;;;-0.70;100.00
47530;BME280;33272;51.922;7.730;2022-11-20T08:28:01;100382.59;;;-0.68;100.00
47530;BME280;33272;51.922;7.730;2022-11-20T08:30:29;100383.28;;;-0.62;100.00
47530;BME280;33272;51.922;7.730;2022-11-20T08:33:03;100381.06;;;-0.52;100.00
47530;BME280;33272;51.922;7.730;2022-11-20T08:35:33;100378.13;;;-0.41;100.00
47530;BME280;33272;51.922;7.730;2022-11-20T08:38:01;100386.66;;;-0.32;100.00
47530;BME280;33272;51.922;7.730;2022-11-20T08:40:29;100385.56;;;-0.27;100.00
47530;BME280;33272;51.922;7.730;2022-11-20T08:42:56;100392.69;;;-0.15;100.00
47530;BME280;33272;51.922;7.730;2022-11-20T08:45:23;100399.75;;;-0.04;100.00
47530;BME280;33272;51.922;7.730;2022-11-20T08:47:50;100386.09;;;0.01;100.00
47530;BME280;33272;51.922;7.730;2022-11-20T08:50:18;100379.69;;;0.12;100.00
47530;BME280;33272;51.922;7.730;2022-11-20T08:52:45;100380.22;;;0.16;100.00
47530;BME280;33272;51.922;7.730;2022-11-20T08:55:12;100382.13;;;0.19;100.00
47530;BME280;33272;51.922;7.730;2022-11-20T08:57:42;100378.03;;;0.19;100.00
47530;BME280;33272;51.922;7.730;2022-11-20T09:00:11;100378.03;;;0.19;100.00
47530;BME280;33272;51.922;7.730;2022-11-20T09:02:38;100372.25;;;0.20;100.00
47530;BME280;33272;51.922;7.730;2022-11-20T09:05:06;100377.44;;;0.22;100.00
47530;BME280;33272;51.922;7.730;2022-11-20T09:07:34;100376.88;;;0.25;100.00
47530;BME280;33272;51.922;7.730;2022-11-20T09:10:01;100378.84;;;0.27;100.00
47530;BME280;33272;51.922;7.730;2022-11-20T09:12:29;100377.53;;;0.31;100.00
47530;BME280;33272;51.922;7.730;2022-11-20T09:14:56;100371.94;;;0.33;100.00
47530;BME280;33272;51.922;7.730;2022-11-20T09:17:23;100376.56;;;0.37;100.00
47530;BME280;33272;51.922;7.730;2022-11-20T09:19:50;100381.06;;;0.40;100.00
47530;BME280;33272;51.922;7.730;2022-11-20T09:22:17;100371.31;;;0.43;100.00
47530;BME280;33272;51.922;7.730;2022-11-20T09:24:45;100377.56;;;0.46;100.00
47530;BME280;33272;51.922;7.730;2022-11-20T09:27:12;100374.50;;;0.49;100.00
47530;BME280;33272;51.922;7.730;2022-11-20T09:29:40;100370.66;;;0.53;100.00
47530;BME280;33272;51.922;7.730;2022-11-20T09:32:07;100368.66;;;0.57;100.00
47530;BME280;33272;51.922;7.730;2022-11-20T09:34:34;100361.44;;;0.60;100.00
47530;BME280;33272;51.922;7.730;2022-11-20T09:37:01;100350.06;;;0.64;100.00
47530;BME280;33272;51.922;7.730;2022-11-20T09:39:28;100350.72;;;0.70;100.00
47530;BME280;33272;51.922;7.730;2022-11-20T09:42:34;100350.28;;;0.74;100.00
47530;BME280;33272;51.922;7.730;2022-11-20T09:45:19;100358.31;;;0.79;100.00
47530;BME280;33272;51.922;7.730;2022-11-20T09:48:13;100353.59;;;0.82;100.00
47530;BME280;33272;51.922;7.730;2022-11-20T09:50:48;100350.16;;;0.88;100.00
47530;BME280;33272;51.922;7.730;2022-11-20T09:53:27;100342.50;;;0.96;100.00
47530;BME280;33272;51.922;7.730;2022-11-20T09:55:57;100339.72;;;1.01;100.00
47530;BME280;33272;51.922;7.730;2022-11-20T09:58:31;100339.31;;;1.05;100.00
47530;BME280;33272;51.922;7.730;2022-11-20T10:01:09;100336.34;;;1.09;100.00
47530;BME280;33272;51.922;7.730;2022-11-20T10:03:45;100335.03;;;1.13;100.00
47530;BME280;33272;51.922;7.730;2022-11-20T10:06:21;100330.31;;;1.16;100.00
47530;BME280;33272;51.922;7.730;2022-11-20T10:09:01;100328.44;;;1.22;100.00
47530;BME280;33272;51.922;7.730;2022-11-20T10:11:42;100319.88;;;1.29;100.00
47530;BME280;33272;51.922;7.730;2022-11-20T10:14:24;100318.16;;;1.36;100.00
47530;BME280;33272;51.922;7.730;2022-11-20T10:17:02;100318.22;;;1.45;100.00
47530;BME280;33272;51.922;7.730;2022-11-20T10:19:54;100313.06;;;1.52;100.00
47530;BME280;33272;51.922;7.730;2022-11-20T10:22:41;100301.41;;;1.61;100.00
47530;BME280;33272;51.922;7.730;2022-11-20T10:25:15;100302.66;;;1.74;100.00
47530;BME280;33272;51.922;7.730;2022-11-20T10:28:15;100295.53;;;1.78;100.00
47530;BME280;33272;51.922;7.730;2022-11-20T10:30:56;100292.44;;;1.81;100.00
47530;BME280;33272;51.922;7.730;2022-11-20T10:33:25;100297.78;;;1.84;100.00
47530;BME280;33272;51.922;7.730;2022-11-20T10:36:06;100301.78;;;1.82;100.00
47530;BME280;33272;51.922;7.730;2022-11-20T10:38:39;100301.50;;;1.88;100.00
47530;BME280;33272;51.922;7.730;2022-11-20T10:41:21;100298.75;;;2.02;100.00
47530;BME280;33272;51.922;7.730;2022-11-20T10:44:01;100291.75;;;2.08;100.00
47530;BME280;33272;51.922;7.730;2022-11-20T10:47:22;100293.69;;;2.11;100.00
47530;BME280;33272;51.922;7.730;2022-11-20T10:49:53;100298.63;;;2.26;100.00
47530;BME280;33272;51.922;7.730;2022-11-20T10:52:28;100294.50;;;2.36;100.00
47530;BME280;33272;51.922;7.730;2022-11-20T10:55:11;100284.56;;;2.46;100.00
47530;BME280;33272;51.922;7.730;2022-11-20T10:57:53;100293.66;;;2.52;100.00
47530;BME280;33272;51.922;7.730;2022-11-20T11:00:23;100285.03;;;2.59;100.00
47530;BME280;33272;51.922;7.730;2022-11-20T11:02:53;100285.78;;;2.67;100.00
47530;BME280;33272;51.922;7.730;2022-11-20T11:05:33;100281.47;;;2.74;100.00
47530;BME280;33272;51.922;7.730;2022-11-20T11:08:04;100274.16;;;2.86;100.00
47530;BME280;33272;51.922;7.730;2022-11-20T11:10:39;100270.47;;;2.91;100.00
47530;BME280;33272;51.922;7.730;2022-11-20T11:13:18;100258.56;;;2.90;100.00
47530;BME280;33272;51.922;7.730;2022-11-20T11:15:45;100254.88;;;2.78;100.00
47530;BME280;33272;51.922;7.730;2022-11-20T11:18:24;100259.31;;;2.81;100.00
47530;BME280;33272;51.922;7.730;2022-11-20T11:20:53;100254.84;;;2.87;100.00
47530;BME280;33272;51.922;7.730;2022-11-20T11:23:32;100254.41;;;2.82;100.00
47530;BME280;33272;51.922;7.730;2022-11-20T11:26:02;100250.06;;;2.98;100.00
47530;BME280;33272;51.922;7.730;2022-11-20T11:28:29;100248.72;;;3.02;100.00
47530;BME280;33272;51.922;7.730;2022-11-20T11:30:56;100248.44;;;3.08;100.00
47530;BME280;33272;51.922;7.730;2022-11-20T11:33:27;100246.19;;;3.19;100.00
47530;BME280;33272;51.922;7.730;2022-11-20T11:35:57;100246.88;;;3.27;100.00
47530;BME280;33272;51.922;7.730;2022-11-20T11:38:35;100243.59;;;3.37;100.00
47530;BME280;33272;51.922;7.730;2022-11-20T11:41:04;100238.97;;;3.41;100.00
47530;BME280;33272;51.922;7.730;2022-11-20T11:43:34;100235.28;;;3.65;100.00
47530;BME280;33272;51.922;7.730;2022-11-20T11:46:29;100241.97;;;4.01;100.00
47530;BME280;33272;51.922;7.730;2022-11-20T11:49:01;100234.22;;;4.27;100.00
47530;BME280;33272;51.922;7.730;2022-11-20T11:51:34;100229.63;;;4.42;100.00
47530;BME280;33272;51.922;7.730;2022-11-20T11:54:16;100227.56;;;4.57;100.00
47530;BME280;33272;51.922;7.730;2022-11-20T11:56:45;100231.88;;;4.77;100.00
47530;BME280;33272;51.922;7.730;2022-11-20T11:59:17;100228.63;;;4.88;100.00
47530;BME280;33272;51.922;7.730;2022-11-20T12:01:53;100230.25;;;5.06;100.00
47530;BME280;33272;51.922;7.730;2022-11-20T12:04:38;100229.34;;;5.06;100.00
47530;BME280;33272;51.922;7.730;2022-11-20T12:07:13;100228.72;;;5.38;100.00
47530;BME280;33272;51.922;7.730;2022-11-20T12:09:47;100223.66;;;5.48;100.00
47530;BME280;33272;51.922;7.730;2022-11-20T12:12:20;100218.63;;;5.58;100.00
47530;BME280;33272;51.922;7.730;2022-11-20T12:14:50;100224.97;;;5.73;99.13
47530;BME280;33272;51.922;7.730;2022-11-20T12:17:19;100213.13;;;5.93;100.00
47530;BME280;33272;51.922;7.730;2022-11-20T12:19:48;100206.75;;;6.08;99.27
47530;BME280;33272;51.922;7.730;2022-11-20T12:22:26;100203.69;;;5.92;93.78
47530;BME280;33272;51.922;7.730;2022-11-20T12:25:01;100198.88;;;6.05;96.02
47530;BME280;33272;51.922;7.730;2022-11-20T12:27:59;100192.56;;;6.00;93.91
47530;BME280;33272;51.922;7.730;2022-11-20T12:30:33;100188.97;;;6.08;95.94
47530;BME280;33272;51.922;7.730;2022-11-20T12:33:17;100187.59;;;6.01;93.65
47530;BME280;33272;51.922;7.730;2022-11-20T12:36:05;100186.84;;;6.02;92.47
47530;BME280;33272;51.922;7.730;2022-11-20T12:38:49;100175.38;;;5.87;88.29
47530;BME280;33272;51.922;7.730;2022-11-20T12:41:34;100175.22;;;5.75;89.01
47530;BME280;33272;51.922;7.730;2022-11-20T12:44:38;100170.78;;;5.63;91.75
47530;BME280;33272;51.922;7.730;2022-11-20T12:47:35;100163.63;;;5.48;92.68
47530;BME280;33272;51.922;7.730;2022-11-20T12:50:12;100170.97;;;5.35;92.74
47530;BME280;33272;51.922;7.730;2022-11-20T12:52:48;100173.94;;;5.10;90.42
47530;BME280;33272;51.922;7.730;2022-11-20T12:55:36;100174.84;;;5.11;93.39
47530;BME280;33272;51.922;7.730;2022-11-20T12:58:12;100167.09;;;5.09;91.94
47530;BME280;33272;51.922;7.730;2022-11-20T13:00:53;100168.09;;;5.01;90.18
47530;BME280;33272;51.922;7.730;2022-11-20T13:03:46;100163.16;;;5.03;92.15